LFMK

Carcassonne Airport

Carcassonne/Salvaza, France
TAF AMD LFMK 170218Z 1703/1803 28006KT 9999 BKN050 TEMPO 1703/1705 4000 BR BECMG 1707/1709 28013KT SCT018 OVC030 TEMPO 1712/1715 27017G30KT TEMPO 1713/1719 7000 SHRA SCT013 BKN030 OVC050
Issued Valid From Valid To
Jan-17 @ 02:18 UTC
(3 hours ago)
Jan-17 @ 03:00 UTC
(2 hours ago)
Jan-18 @ 03:00 UTC
(in 22 hours)
Jan-17 @ 03:00 to Jan-17 @ 07:00
TAF AMD LFMK 170218Z 1703/1803 28006KT 9999 BKN050
Wind Visibility Clouds
280° at 6 knots 10,000+ meters
  • Broken at 5,000' AGL
Temporary Jan-17 @ 03:00 to Jan-17 @ 05:00
TEMPO 1703/1705 4000 BR
Visibility Conditions
4,007 meters
  • Mist
Becoming Jan-17 @ 07:00 to Jan-18 @ 03:00
BECMG 1707/1709 28013KT SCT018 OVC030
Wind Visibility Clouds
280° at 13 knots 10,000+ meters
  • Scattered at 1,800' AGL
  • Overcast at 3,000' AGL
Temporary Jan-17 @ 12:00 to Jan-17 @ 15:00
TEMPO 1712/1715 27017G30KT
Wind
270° at 17 knots
 Gusting to 30 knots
Temporary Jan-17 @ 13:00 to Jan-17 @ 19:00
TEMPO 1713/1719 7000 SHRA SCT013 BKN030 OVC050
Visibility Clouds Conditions
7,001 meters
  • Scattered at 1,300' AGL
  • Broken at 3,000' AGL
  • Overcast at 5,000' AGL
  • Rain
TAF AMD LFMK 170218Z 1703/1803 28006KT 9999 BKN050 TEMPO 1703/1705 4000 BR BECMG 1707/1709 28013KT SCT018 OVC030 TEMPO 1712/1715 27017G30KT TEMPO 1713/1719 7000 SHRA SCT013 BKN030 OVC050
Issued Jan-17 @ 02:18 UTC
(3 hours ago)
Valid From Jan-17 @ 03:00 UTC
(2 hours ago)
Valid To Jan-18 @ 03:00 UTC
(in 22 hours)
Jan-17 @ 03:00 - Jan-17 @ 07:00
Wind Visibility
280° at 6 knots 10,000+ meters
Clouds
  • Broken at 5,000' AGL
Temporary Jan-17 @ 03:00 - Jan-17 @ 05:00
Conditions
  • Mist
Becoming Jan-17 @ 07:00 - Jan-18 @ 03:00
Wind Visibility
280° at 13 knots 10,000+ meters
Clouds
  • Scattered at 1,800' AGL
  • Overcast at 3,000' AGL
Temporary Jan-17 @ 12:00 - Jan-17 @ 15:00
Wind
270° at 17 knots
 Gusting to 30 knots
Temporary Jan-17 @ 13:00 - Jan-17 @ 19:00
Clouds
  • Scattered at 1,300' AGL
  • Broken at 3,000' AGL
  • Overcast at 5,000' AGL
Conditions
  • Rain